sensor_id;sensor_type;location;lat;lon;timestamp;P1;durP1;ratioP1;P2;durP2;ratioP2
28958;SDS011;16066;0.000;0.000;2023-08-06T05:30:17;6.67;;;5.00;;
28958;SDS011;16066;0.000;0.000;2023-08-06T05:32:43;6.40;;;4.50;;
28958;SDS011;16066;0.000;0.000;2023-08-06T05:35:08;7.20;;;4.97;;
28958;SDS011;16066;0.000;0.000;2023-08-06T05:37:34;7.43;;;5.10;;
28958;SDS011;16066;0.000;0.000;2023-08-06T05:40:00;6.30;;;4.50;;
28958;SDS011;16066;0.000;0.000;2023-08-06T05:42:27;6.30;;;5.00;;
28958;SDS011;16066;0.000;0.000;2023-08-06T05:44:52;5.90;;;4.47;;
28958;SDS011;16066;0.000;0.000;2023-08-06T05:47:18;5.10;;;4.37;;
28958;SDS011;16066;0.000;0.000;2023-08-06T05:49:44;6.20;;;4.83;;
28958;SDS011;16066;0.000;0.000;2023-08-06T05:52:10;8.47;;;4.63;;
28958;SDS011;16066;0.000;0.000;2023-08-06T05:54:36;7.20;;;4.90;;
28958;SDS011;16066;0.000;0.000;2023-08-06T05:57:01;5.80;;;4.47;;
28958;SDS011;16066;0.000;0.000;2023-08-06T05:59:27;7.43;;;5.50;;
28958;SDS011;16066;0.000;0.000;2023-08-06T06:01:53;6.53;;;4.90;;
28958;SDS011;16066;0.000;0.000;2023-08-06T06:04:18;5.90;;;4.57;;
28958;SDS011;16066;0.000;0.000;2023-08-06T06:06:44;5.53;;;4.33;;
28958;SDS011;16066;0.000;0.000;2023-08-06T06:09:09;6.23;;;4.70;;
28958;SDS011;16066;0.000;0.000;2023-08-06T06:11:35;5.97;;;4.80;;
28958;SDS011;16066;0.000;0.000;2023-08-06T06:14:01;7.30;;;4.67;;
28958;SDS011;16066;0.000;0.000;2023-08-06T06:16:26;6.27;;;4.37;;
28958;SDS011;16066;0.000;0.000;2023-08-06T06:18:52;5.43;;;4.33;;
28958;SDS011;16066;0.000;0.000;2023-08-06T06:21:19;5.10;;;4.13;;
28958;SDS011;16066;0.000;0.000;2023-08-06T06:23:45;6.83;;;3.80;;
28958;SDS011;16066;0.000;0.000;2023-08-06T06:26:10;5.03;;;4.13;;
28958;SDS011;16066;0.000;0.000;2023-08-06T06:28:36;5.83;;;4.37;;
28958;SDS011;16066;0.000;0.000;2023-08-06T06:31:01;6.50;;;4.77;;
28958;SDS011;16066;0.000;0.000;2023-08-06T06:33:27;5.40;;;4.37;;
28958;SDS011;16066;0.000;0.000;2023-08-06T06:35:53;6.23;;;4.23;;
28958;SDS011;16066;0.000;0.000;2023-08-06T06:38:18;4.53;;;3.60;;
28958;SDS011;16066;0.000;0.000;2023-08-06T06:40:46;6.30;;;4.90;;
28958;SDS011;16066;0.000;0.000;2023-08-06T06:43:18;6.83;;;4.83;;
28958;SDS011;16066;0.000;0.000;2023-08-06T06:45:44;5.87;;;4.57;;
28958;SDS011;16066;0.000;0.000;2023-08-06T06:48:09;5.43;;;4.33;;
28958;SDS011;16066;0.000;0.000;2023-08-06T06:50:35;5.67;;;4.70;;
28958;SDS011;16066;0.000;0.000;2023-08-06T06:53:01;4.60;;;3.80;;
28958;SDS011;16066;0.000;0.000;2023-08-06T06:55:26;5.80;;;4.50;;
28958;SDS011;16066;0.000;0.000;2023-08-06T06:57:52;5.20;;;4.20;;
28958;SDS011;16066;0.000;0.000;2023-08-06T07:00:18;5.70;;;4.37;;
28958;SDS011;16066;0.000;0.000;2023-08-06T07:02:43;4.63;;;3.67;;
28958;SDS011;16066;0.000;0.000;2023-08-06T07:05:09;4.67;;;3.50;;
28958;SDS011;16066;0.000;0.000;2023-08-06T07:07:35;6.00;;;4.17;;
28958;SDS011;16066;0.000;0.000;2023-08-06T07:10:01;5.10;;;4.40;;
28958;SDS011;16066;0.000;0.000;2023-08-06T07:12:27;4.40;;;3.57;;
28958;SDS011;16066;0.000;0.000;2023-08-06T07:14:52;5.43;;;3.93;;
28958;SDS011;16066;0.000;0.000;2023-08-06T07:17:18;4.40;;;3.40;;
28958;SDS011;16066;0.000;0.000;2023-08-06T07:19:43;5.50;;;3.70;;
28958;SDS011;16066;0.000;0.000;2023-08-06T07:22:09;5.03;;;4.00;;
28958;SDS011;16066;0.000;0.000;2023-08-06T07:24:34;5.40;;;3.60;;
28958;SDS011;16066;0.000;0.000;2023-08-06T07:27:00;4.43;;;3.40;;
28958;SDS011;16066;0.000;0.000;2023-08-06T07:29:26;10.97;;;4.50;;
28958;SDS011;16066;0.000;0.000;2023-08-06T07:31:51;6.90;;;4.07;;
28958;SDS011;16066;0.000;0.000;2023-08-06T07:34:17;7.13;;;4.50;;
28958;SDS011;16066;0.000;0.000;2023-08-06T07:36:43;9.70;;;3.67;;
28958;SDS011;16066;0.000;0.000;2023-08-06T07:39:10;5.80;;;4.07;;
28958;SDS011;16066;0.000;0.000;2023-08-06T07:41:36;6.07;;;4.10;;
28958;SDS011;16066;0.000;0.000;2023-08-06T07:44:01;4.40;;;3.73;;
28958;SDS011;16066;0.000;0.000;2023-08-06T07:46:27;4.73;;;3.60;;
28958;SDS011;16066;0.000;0.000;2023-08-06T07:48:52;5.73;;;3.40;;
28958;SDS011;16066;0.000;0.000;2023-08-06T07:51:18;5.50;;;3.97;;
28958;SDS011;16066;0.000;0.000;2023-08-06T07:53:44;9.67;;;3.90;;
28958;SDS011;16066;0.000;0.000;2023-08-06T07:56:10;6.50;;;3.53;;
28958;SDS011;16066;0.000;0.000;2023-08-06T07:58:36;6.30;;;3.90;;
28958;SDS011;16066;0.000;0.000;2023-08-06T08:01:01;5.90;;;4.13;;
28958;SDS011;16066;0.000;0.000;2023-08-06T08:03:27;7.67;;;3.60;;
28958;SDS011;16066;0.000;0.000;2023-08-06T08:05:54;6.13;;;3.50;;
28958;SDS011;16066;0.000;0.000;2023-08-06T08:08:23;8.57;;;2.83;;
28958;SDS011;16066;0.000;0.000;2023-08-06T08:10:49;5.30;;;3.17;;
28958;SDS011;16066;0.000;0.000;2023-08-06T08:13:15;7.77;;;3.50;;
28958;SDS011;16066;0.000;0.000;2023-08-06T08:15:40;4.47;;;3.57;;
28958;SDS011;16066;0.000;0.000;2023-08-06T08:18:06;9.07;;;4.10;;
28958;SDS011;16066;0.000;0.000;2023-08-06T08:20:31;4.93;;;3.77;;
28958;SDS011;16066;0.000;0.000;2023-08-06T08:23:01;7.07;;;4.10;;
28958;SDS011;16066;0.000;0.000;2023-08-06T08:25:26;13.23;;;4.43;;
28958;SDS011;16066;0.000;0.000;2023-08-06T08:27:55;9.37;;;4.50;;
28958;SDS011;16066;0.000;0.000;2023-08-06T08:30:21;8.87;;;4.60;;
28958;SDS011;16066;0.000;0.000;2023-08-06T08:32:47;21.47;;;7.40;;
28958;SDS011;16066;0.000;0.000;2023-08-06T08:35:14;15.23;;;5.40;;
28958;SDS011;16066;0.000;0.000;2023-08-06T08:37:40;17.60;;;6.60;;
28958;SDS011;16066;0.000;0.000;2023-08-06T08:40:07;15.13;;;6.73;;
28958;SDS011;16066;0.000;0.000;2023-08-06T08:42:33;10.90;;;6.60;;
28958;SDS011;16066;0.000;0.000;2023-08-06T08:44:59;18.90;;;7.90;;
28958;SDS011;16066;0.000;0.000;2023-08-06T08:47:25;17.60;;;6.13;;
28958;SDS011;16066;0.000;0.000;2023-08-06T08:49:52;19.67;;;6.80;;
28958;SDS011;16066;0.000;0.000;2023-08-06T08:52:20;15.30;;;6.27;;
28958;SDS011;16066;0.000;0.000;2023-08-06T08:54:47;17.77;;;6.93;;
28958;SDS011;16066;0.000;0.000;2023-08-06T08:57:17;22.47;;;7.57;;
28958;SDS011;16066;0.000;0.000;2023-08-06T08:59:43;19.70;;;7.10;;
28958;SDS011;16066;0.000;0.000;2023-08-06T09:02:10;14.67;;;7.20;;
28958;SDS011;16066;0.000;0.000;2023-08-06T09:04:37;24.30;;;7.53;;
28958;SDS011;16066;0.000;0.000;2023-08-06T09:07:04;19.70;;;7.03;;
28958;SDS011;16066;0.000;0.000;2023-08-06T09:09:33;16.77;;;6.30;;
28958;SDS011;16066;0.000;0.000;2023-08-06T09:12:06;14.00;;;6.37;;
28958;SDS011;16066;0.000;0.000;2023-08-06T09:14:42;18.80;;;8.10;;
28958;SDS011;16066;0.000;0.000;2023-08-06T09:17:08;13.27;;;5.70;;
28958;SDS011;16066;0.000;0.000;2023-08-06T09:19:35;15.90;;;4.50;;
28958;SDS011;16066;0.000;0.000;2023-08-06T09:22:01;15.00;;;6.00;;
28958;SDS011;16066;0.000;0.000;2023-08-06T09:24:27;11.07;;;5.57;;
28958;SDS011;16066;0.000;0.000;2023-08-06T09:26:53;14.07;;;5.47;;
28958;SDS011;16066;0.000;0.000;2023-08-06T09:29:19;13.07;;;5.43;;
28958;SDS011;16066;0.000;0.000;2023-08-06T09:31:49;16.93;;;5.53;;
28958;SDS011;16066;0.000;0.000;2023-08-06T09:34:19;8.93;;;4.10;;
28958;SDS011;16066;0.000;0.000;2023-08-06T09:36:48;11.07;;;4.23;;
28958;SDS011;16066;0.000;0.000;2023-08-06T09:39:22;7.50;;;3.70;;
28958;SDS011;16066;0.000;0.000;2023-08-06T09:41:55;11.47;;;4.30;;
28958;SDS011;16066;0.000;0.000;2023-08-06T09:44:22;7.20;;;3.67;;
28958;SDS011;16066;0.000;0.000;2023-08-06T09:46:56;8.73;;;3.83;;
28958;SDS011;16066;0.000;0.000;2023-08-06T09:49:26;5.03;;;3.30;;
28958;SDS011;16066;0.000;0.000;2023-08-06T09:52:04;11.03;;;4.10;;
28958;SDS011;16066;0.000;0.000;2023-08-06T09:54:31;8.00;;;3.37;;
28958;SDS011;16066;0.000;0.000;2023-08-06T09:57:00;8.20;;;3.80;;
28958;SDS011;16066;0.000;0.000;2023-08-06T09:59:26;7.07;;;3.80;;
28958;SDS011;16066;0.000;0.000;2023-08-06T10:01:52;8.53;;;3.67;;
28958;SDS011;16066;0.000;0.000;2023-08-06T10:04:19;5.47;;;3.33;;
28958;SDS011;16066;0.000;0.000;2023-08-06T10:06:46;4.53;;;3.50;;
28958;SDS011;16066;0.000;0.000;2023-08-06T10:09:15;7.13;;;2.97;;
28958;SDS011;16066;0.000;0.000;2023-08-06T10:11:42;10.83;;;3.27;;
28958;SDS011;16066;0.000;0.000;2023-08-06T10:14:13;6.07;;;3.30;;
28958;SDS011;16066;0.000;0.000;2023-08-06T10:17:00;7.47;;;2.97;;
28958;SDS011;16066;0.000;0.000;2023-08-06T10:19:26;6.97;;;3.50;;
28958;SDS011;16066;0.000;0.000;2023-08-06T10:24:51;8.90;;;3.00;;
28958;SDS011;16066;0.000;0.000;2023-08-06T10:27:32;6.97;;;2.97;;
28958;SDS011;16066;0.000;0.000;2023-08-06T10:32:57;8.60;;;3.10;;
28958;SDS011;16066;0.000;0.000;2023-08-06T10:38:03;4.60;;;3.00;;
28958;SDS011;16066;0.000;0.000;2023-08-06T10:40:33;6.77;;;3.40;;
28958;SDS011;16066;0.000;0.000;2023-08-06T10:42:59;6.33;;;3.20;;
28958;SDS011;16066;0.000;0.000;2023-08-06T10:45:29;4.90;;;3.50;;
28958;SDS011;16066;0.000;0.000;2023-08-06T10:47:55;4.40;;;3.37;;
28958;SDS011;16066;0.000;0.000;2023-08-06T10:50:25;5.23;;;3.70;;
28958;SDS011;16066;0.000;0.000;2023-08-06T10:52:51;7.57;;;3.73;;
28958;SDS011;16066;0.000;0.000;2023-08-06T10:55:24;5.60;;;3.47;;
28958;SDS011;16066;0.000;0.000;2023-08-06T10:57:54;4.83;;;3.10;;
28958;SDS011;16066;0.000;0.000;2023-08-06T11:00:20;4.23;;;3.20;;
28958;SDS011;16066;0.000;0.000;2023-08-06T11:02:48;5.30;;;3.67;;
28958;SDS011;16066;0.000;0.000;2023-08-06T11:05:15;8.13;;;3.77;;
28958;SDS011;16066;0.000;0.000;2023-08-06T11:07:40;5.90;;;3.30;;
28958;SDS011;16066;0.000;0.000;2023-08-06T11:10:07;5.33;;;3.30;;
28958;SDS011;16066;0.000;0.000;2023-08-06T11:12:34;6.60;;;3.07;;
28958;SDS011;16066;0.000;0.000;2023-08-06T11:15:00;8.53;;;2.77;;
28958;SDS011;16066;0.000;0.000;2023-08-06T11:17:27;6.20;;;2.53;;
28958;SDS011;16066;0.000;0.000;2023-08-06T11:19:53;5.17;;;2.73;;
28958;SDS011;16066;0.000;0.000;2023-08-06T11:22:20;5.80;;;3.13;;
28958;SDS011;16066;0.000;0.000;2023-08-06T11:24:46;7.03;;;3.80;;
28958;SDS011;16066;0.000;0.000;2023-08-06T11:27:13;6.30;;;3.60;;
28958;SDS011;16066;0.000;0.000;2023-08-06T11:29:40;8.40;;;3.40;;
28958;SDS011;16066;0.000;0.000;2023-08-06T11:32:06;4.53;;;3.20;;
28958;SDS011;16066;0.000;0.000;2023-08-06T11:34:36;5.50;;;3.30;;
28958;SDS011;16066;0.000;0.000;2023-08-06T11:37:03;7.50;;;3.43;;
28958;SDS011;16066;0.000;0.000;2023-08-06T11:39:32;5.30;;;3.20;;
28958;SDS011;16066;0.000;0.000;2023-08-06T11:41:58;4.07;;;2.63;;
28958;SDS011;16066;0.000;0.000;2023-08-06T11:44:27;3.20;;;2.83;;
28958;SDS011;16066;0.000;0.000;2023-08-06T11:46:57;6.83;;;3.07;;
28958;SDS011;16066;0.000;0.000;2023-08-06T11:49:37;6.50;;;3.30;;
28958;SDS011;16066;0.000;0.000;2023-08-06T11:57:33;6.73;;;2.87;;
28958;SDS011;16066;0.000;0.000;2023-08-06T12:02:31;3.80;;;2.37;;
28958;SDS011;16066;0.000;0.000;2023-08-06T12:05:00;2.03;;;1.83;;
28958;SDS011;16066;0.000;0.000;2023-08-06T12:07:33;2.50;;;1.90;;
28958;SDS011;16066;0.000;0.000;2023-08-06T12:10:02;4.13;;;2.37;;
28958;SDS011;16066;0.000;0.000;2023-08-06T12:12:28;3.77;;;1.90;;
28958;SDS011;16066;0.000;0.000;2023-08-06T12:14:54;5.03;;;1.70;;
28958;SDS011;16066;0.000;0.000;2023-08-06T12:17:20;3.43;;;2.13;;
28958;SDS011;16066;0.000;0.000;2023-08-06T12:19:46;4.40;;;2.93;;
28958;SDS011;16066;0.000;0.000;2023-08-06T12:22:12;7.03;;;3.07;;
28958;SDS011;16066;0.000;0.000;2023-08-06T12:24:39;5.63;;;3.03;;
28958;SDS011;16066;0.000;0.000;2023-08-06T12:27:05;3.80;;;2.60;;
28958;SDS011;16066;0.000;0.000;2023-08-06T12:29:31;7.23;;;3.03;;
28958;SDS011;16066;0.000;0.000;2023-08-06T12:31:56;5.00;;;2.70;;
28958;SDS011;16066;0.000;0.000;2023-08-06T12:34:22;4.57;;;2.80;;
28958;SDS011;16066;0.000;0.000;2023-08-06T12:36:48;4.00;;;2.30;;
28958;SDS011;16066;0.000;0.000;2023-08-06T12:39:13;3.23;;;2.47;;
28958;SDS011;16066;0.000;0.000;2023-08-06T12:41:39;4.13;;;2.60;;
28958;SDS011;16066;0.000;0.000;2023-08-06T12:44:04;4.73;;;2.40;;
28958;SDS011;16066;0.000;0.000;2023-08-06T12:46:30;3.03;;;2.10;;
28958;SDS011;16066;0.000;0.000;2023-08-06T12:48:56;3.67;;;2.30;;
28958;SDS011;16066;0.000;0.000;2023-08-06T12:51:22;2.43;;;1.87;;
28958;SDS011;16066;0.000;0.000;2023-08-06T12:53:48;4.30;;;2.27;;
28958;SDS011;16066;0.000;0.000;2023-08-06T12:56:14;2.70;;;2.23;;
28958;SDS011;16066;0.000;0.000;2023-08-06T12:58:39;4.97;;;2.57;;
28958;SDS011;16066;0.000;0.000;2023-08-06T13:01:06;3.60;;;2.47;;
28958;SDS011;16066;0.000;0.000;2023-08-06T13:03:32;6.53;;;2.83;;
28958;SDS011;16066;0.000;0.000;2023-08-06T13:05:57;3.03;;;1.83;;
28958;SDS011;16066;0.000;0.000;2023-08-06T13:08:23;6.43;;;1.93;;
28958;SDS011;16066;0.000;0.000;2023-08-06T13:10:49;2.30;;;1.70;;
28958;SDS011;16066;0.000;0.000;2023-08-06T13:13:14;7.70;;;2.23;;
28958;SDS011;16066;0.000;0.000;2023-08-06T13:15:40;8.20;;;2.77;;
28958;SDS011;16066;0.000;0.000;2023-08-06T13:18:05;3.53;;;1.57;;
28958;SDS011;16066;0.000;0.000;2023-08-06T13:20:31;4.87;;;1.93;;
28958;SDS011;16066;0.000;0.000;2023-08-06T13:22:58;2.50;;;1.40;;
28958;SDS011;16066;0.000;0.000;2023-08-06T13:25:25;2.30;;;1.90;;
28958;SDS011;16066;0.000;0.000;2023-08-06T13:27:52;1.97;;;1.57;;
28958;SDS011;16066;0.000;0.000;2023-08-06T13:30:17;4.37;;;1.70;;
28958;SDS011;16066;0.000;0.000;2023-08-06T13:32:43;4.20;;;1.50;;
28958;SDS011;16066;0.000;0.000;2023-08-06T13:35:09;2.30;;;1.80;;
28958;SDS011;16066;0.000;0.000;2023-08-06T13:37:35;4.00;;;1.77;;
28958;SDS011;16066;0.000;0.000;2023-08-06T13:40:01;7.30;;;1.77;;
28958;SDS011;16066;0.000;0.000;2023-08-06T13:42:27;5.27;;;2.20;;
28958;SDS011;16066;0.000;0.000;2023-08-06T13:44:54;6.30;;;1.63;;
28958;SDS011;16066;0.000;0.000;2023-08-06T13:47:24;5.30;;;1.47;;
28958;SDS011;16066;0.000;0.000;2023-08-06T13:49:50;4.67;;;1.87;;
28958;SDS011;16066;0.000;0.000;2023-08-06T13:52:15;7.10;;;1.93;;
28958;SDS011;16066;0.000;0.000;2023-08-06T13:54:41;3.07;;;2.00;;
28958;SDS011;16066;0.000;0.000;2023-08-06T13:57:06;4.00;;;1.70;;
28958;SDS011;16066;0.000;0.000;2023-08-06T13:59:32;2.83;;;1.80;;
28958;SDS011;16066;0.000;0.000;2023-08-06T14:01:57;2.30;;;1.50;;
28958;SDS011;16066;0.000;0.000;2023-08-06T14:04:24;2.33;;;1.63;;
28958;SDS011;16066;0.000;0.000;2023-08-06T14:06:50;6.10;;;1.80;;
28958;SDS011;16066;0.000;0.000;2023-08-06T14:09:16;2.27;;;1.73;;
28958;SDS011;16066;0.000;0.000;2023-08-06T14:11:43;2.20;;;2.00;;
28958;SDS011;16066;0.000;0.000;2023-08-06T14:14:09;2.70;;;1.87;;
28958;SDS011;16066;0.000;0.000;2023-08-06T14:16:35;3.47;;;1.60;;
28958;SDS011;16066;0.000;0.000;2023-08-06T14:19:01;2.30;;;1.80;;
28958;SDS011;16066;0.000;0.000;2023-08-06T14:21:27;1.50;;;1.40;;
28958;SDS011;16066;0.000;0.000;2023-08-06T14:23:52;3.10;;;1.50;;
28958;SDS011;16066;0.000;0.000;2023-08-06T14:26:18;1.87;;;1.57;;
28958;SDS011;16066;0.000;0.000;2023-08-06T14:28:43;3.93;;;2.00;;
28958;SDS011;16066;0.000;0.000;2023-08-06T14:31:09;1.90;;;1.50;;
28958;SDS011;16066;0.000;0.000;2023-08-06T14:33:34;2.53;;;1.63;;
28958;SDS011;16066;0.000;0.000;2023-08-06T14:36:00;4.40;;;1.70;;
28958;SDS011;16066;0.000;0.000;2023-08-06T14:38:26;1.83;;;1.37;;
28958;SDS011;16066;0.000;0.000;2023-08-06T14:40:52;4.70;;;1.90;;
28958;SDS011;16066;0.000;0.000;2023-08-06T14:43:17;4.57;;;1.70;;
28958;SDS011;16066;0.000;0.000;2023-08-06T14:45:44;5.80;;;1.60;;
28958;SDS011;16066;0.000;0.000;2023-08-06T14:48:10;2.37;;;1.50;;
28958;SDS011;16066;0.000;0.000;2023-08-06T14:50:35;2.90;;;1.30;;
28958;SDS011;16066;0.000;0.000;2023-08-06T14:53:02;1.60;;;1.50;;
28958;SDS011;16066;0.000;0.000;2023-08-06T14:55:28;1.90;;;1.40;;
28958;SDS011;16066;0.000;0.000;2023-08-06T14:57:53;2.40;;;1.80;;
28958;SDS011;16066;0.000;0.000;2023-08-06T15:00:19;2.03;;;1.83;;
28958;SDS011;16066;0.000;0.000;2023-08-06T15:02:45;1.80;;;1.60;;
28958;SDS011;16066;0.000;0.000;2023-08-06T15:05:11;10.93;;;1.80;;
28958;SDS011;16066;0.000;0.000;2023-08-06T15:07:36;2.10;;;1.73;;
28958;SDS011;16066;0.000;0.000;2023-08-06T15:10:03;1.60;;;1.40;;
28958;SDS011;16066;0.000;0.000;2023-08-06T15:12:30;2.40;;;1.53;;
28958;SDS011;16066;0.000;0.000;2023-08-06T15:14:57;3.20;;;1.60;;
28958;SDS011;16066;0.000;0.000;2023-08-06T15:17:23;1.40;;;1.30;;
28958;SDS011;16066;0.000;0.000;2023-08-06T15:19:49;3.57;;;1.60;;
28958;SDS011;16066;0.000;0.000;2023-08-06T15:22:14;1.97;;;1.77;;
28958;SDS011;16066;0.000;0.000;2023-08-06T15:24:40;2.43;;;1.50;;
28958;SDS011;16066;0.000;0.000;2023-08-06T15:27:07;2.53;;;1.73;;
28958;SDS011;16066;0.000;0.000;2023-08-06T15:29:35;1.63;;;1.20;;
28958;SDS011;16066;0.000;0.000;2023-08-06T15:32:01;5.20;;;1.60;;
28958;SDS011;16066;0.000;0.000;2023-08-06T15:34:27;10.03;;;2.10;;
28958;SDS011;16066;0.000;0.000;2023-08-06T15:36:52;2.77;;;1.53;;
28958;SDS011;16066;0.000;0.000;2023-08-06T15:39:19;2.50;;;1.63;;
28958;SDS011;16066;0.000;0.000;2023-08-06T15:41:45;2.20;;;1.47;;
28958;SDS011;16066;0.000;0.000;2023-08-06T15:44:10;1.80;;;1.40;;
28958;SDS011;16066;0.000;0.000;2023-08-06T15:46:36;1.73;;;1.33;;
28958;SDS011;16066;0.000;0.000;2023-08-06T15:49:02;6.53;;;1.87;;
28958;SDS011;16066;0.000;0.000;2023-08-06T15:51:28;5.53;;;2.60;;
28958;SDS011;16066;0.000;0.000;2023-08-06T15:53:53;2.40;;;1.93;;
28958;SDS011;16066;0.000;0.000;2023-08-06T15:56:19;7.97;;;1.93;;
28958;SDS011;16066;0.000;0.000;2023-08-06T15:58:44;2.23;;;1.80;;
28958;SDS011;16066;0.000;0.000;2023-08-06T16:01:10;3.70;;;1.60;;
28958;SDS011;16066;0.000;0.000;2023-08-06T16:03:36;2.17;;;1.80;;
28958;SDS011;16066;0.000;0.000;2023-08-06T16:06:04;3.30;;;1.60;;
28958;SDS011;16066;0.000;0.000;2023-08-06T16:08:30;6.93;;;1.40;;
28958;SDS011;16066;0.000;0.000;2023-08-06T16:10:56;3.30;;;1.80;;
28958;SDS011;16066;0.000;0.000;2023-08-06T16:13:21;4.53;;;1.67;;
28958;SDS011;16066;0.000;0.000;2023-08-06T16:15:47;3.20;;;1.60;;
28958;SDS011;16066;0.000;0.000;2023-08-06T16:18:14;2.57;;;1.30;;
28958;SDS011;16066;0.000;0.000;2023-08-06T16:20:42;2.70;;;1.70;;
28958;SDS011;16066;0.000;0.000;2023-08-06T16:23:09;4.47;;;1.77;;
28958;SDS011;16066;0.000;0.000;2023-08-06T16:25:38;3.80;;;1.70;;
28958;SDS011;16066;0.000;0.000;2023-08-06T16:28:04;1.63;;;1.53;;
28958;SDS011;16066;0.000;0.000;2023-08-06T16:30:30;2.93;;;1.57;;
28958;SDS011;16066;0.000;0.000;2023-08-06T16:32:57;4.33;;;1.50;;
28958;SDS011;16066;0.000;0.000;2023-08-06T16:35:22;2.27;;;1.73;;
28958;SDS011;16066;0.000;0.000;2023-08-06T16:37:48;1.83;;;1.43;;
28958;SDS011;16066;0.000;0.000;2023-08-06T16:40:13;2.60;;;1.67;;
28958;SDS011;16066;0.000;0.000;2023-08-06T16:42:40;5.57;;;1.73;;
28958;SDS011;16066;0.000;0.000;2023-08-06T16:45:06;5.70;;;2.17;;
28958;SDS011;16066;0.000;0.000;2023-08-06T16:47:32;2.60;;;1.80;;
28958;SDS011;16066;0.000;0.000;2023-08-06T16:49:58;2.23;;;1.80;;
28958;SDS011;16066;0.000;0.000;2023-08-06T16:52:23;2.30;;;1.80;;
28958;SDS011;16066;0.000;0.000;2023-08-06T16:54:49;2.40;;;1.77;;
28958;SDS011;16066;0.000;0.000;2023-08-06T16:57:15;2.50;;;1.97;;
28958;SDS011;16066;0.000;0.000;2023-08-06T16:59:41;3.40;;;2.00;;
28958;SDS011;16066;0.000;0.000;2023-08-06T17:02:06;3.33;;;2.07;;
28958;SDS011;16066;0.000;0.000;2023-08-06T17:04:32;2.30;;;1.73;;
28958;SDS011;16066;0.000;0.000;2023-08-06T17:06:58;6.80;;;2.60;;
28958;SDS011;16066;0.000;0.000;2023-08-06T17:09:23;2.27;;;1.70;;
28958;SDS011;16066;0.000;0.000;2023-08-06T17:11:49;2.50;;;2.10;;
28958;SDS011;16066;0.000;0.000;2023-08-06T17:14:15;4.27;;;2.07;;
28958;SDS011;16066;0.000;0.000;2023-08-06T17:16:41;2.40;;;1.80;;
28958;SDS011;16066;0.000;0.000;2023-08-06T17:19:07;2.20;;;1.77;;
28958;SDS011;16066;0.000;0.000;2023-08-06T17:21:32;2.80;;;1.53;;
28958;SDS011;16066;0.000;0.000;2023-08-06T17:23:59;4.80;;;2.27;;
28958;SDS011;16066;0.000;0.000;2023-08-06T17:26:25;1.70;;;1.60;;
28958;SDS011;16066;0.000;0.000;2023-08-06T17:28:51;3.27;;;2.07;;
28958;SDS011;16066;0.000;0.000;2023-08-06T17:31:16;3.33;;;2.10;;
28958;SDS011;16066;0.000;0.000;2023-08-06T17:33:42;2.60;;;2.10;;
28958;SDS011;16066;0.000;0.000;2023-08-06T17:36:09;5.73;;;1.90;;
28958;SDS011;16066;0.000;0.000;2023-08-06T17:38:34;3.43;;;1.97;;
28958;SDS011;16066;0.000;0.000;2023-08-06T17:41:00;2.90;;;1.80;;
28958;SDS011;16066;0.000;0.000;2023-08-06T17:43:29;3.20;;;1.80;;
28958;SDS011;16066;0.000;0.000;2023-08-06T17:45:54;4.73;;;2.10;;
28958;SDS011;16066;0.000;0.000;2023-08-06T17:48:20;5.60;;;3.00;;
28958;SDS011;16066;0.000;0.000;2023-08-06T17:50:45;6.60;;;3.57;;
28958;SDS011;16066;0.000;0.000;2023-08-06T17:53:11;9.40;;;4.40;;
28958;SDS011;16066;0.000;0.000;2023-08-06T17:55:37;6.03;;;3.50;;
28958;SDS011;16066;0.000;0.000;2023-08-06T17:58:03;8.53;;;5.07;;
28958;SDS011;16066;0.000;0.000;2023-08-06T18:00:30;13.10;;;5.10;;
28958;SDS011;16066;0.000;0.000;2023-08-06T18:02:56;9.60;;;5.20;;
28958;SDS011;16066;0.000;0.000;2023-08-06T18:05:21;12.13;;;5.50;;
28958;SDS011;16066;0.000;0.000;2023-08-06T18:07:47;11.10;;;5.23;;
28958;SDS011;16066;0.000;0.000;2023-08-06T18:10:13;11.80;;;5.70;;
28958;SDS011;16066;0.000;0.000;2023-08-06T18:12:38;10.60;;;6.43;;
28958;SDS011;16066;0.000;0.000;2023-08-06T18:15:07;16.30;;;6.63;;
28958;SDS011;16066;0.000;0.000;2023-08-06T18:17:35;20.10;;;7.87;;
28958;SDS011;16066;0.000;0.000;2023-08-06T18:20:01;17.40;;;7.77;;
28958;SDS011;16066;0.000;0.000;2023-08-06T18:22:29;15.40;;;8.03;;
28958;SDS011;16066;0.000;0.000;2023-08-06T18:24:54;17.47;;;8.47;;
28958;SDS011;16066;0.000;0.000;2023-08-06T18:27:22;14.37;;;6.50;;
28958;SDS011;16066;0.000;0.000;2023-08-06T18:29:47;14.13;;;6.60;;
28958;SDS011;16066;0.000;0.000;2023-08-06T18:32:13;15.03;;;7.37;;
28958;SDS011;16066;0.000;0.000;2023-08-06T18:34:38;11.10;;;6.30;;
28958;SDS011;16066;0.000;0.000;2023-08-06T18:37:04;12.67;;;6.57;;
28958;SDS011;16066;0.000;0.000;2023-08-06T18:39:31;11.17;;;5.60;;
28958;SDS011;16066;0.000;0.000;2023-08-06T18:41:56;11.30;;;5.90;;
28958;SDS011;16066;0.000;0.000;2023-08-06T18:44:22;14.50;;;6.13;;
28958;SDS011;16066;0.000;0.000;2023-08-06T18:46:47;14.90;;;6.40;;
28958;SDS011;16066;0.000;0.000;2023-08-06T18:49:13;15.53;;;5.67;;
28958;SDS011;16066;0.000;0.000;2023-08-06T18:51:39;16.23;;;5.97;;
28958;SDS011;16066;0.000;0.000;2023-08-06T18:54:05;11.37;;;6.13;;
28958;SDS011;16066;0.000;0.000;2023-08-06T18:56:31;10.67;;;5.40;;
28958;SDS011;16066;0.000;0.000;2023-08-06T18:58:56;11.53;;;5.97;;
28958;SDS011;16066;0.000;0.000;2023-08-06T19:01:22;7.07;;;4.33;;
28958;SDS011;16066;0.000;0.000;2023-08-06T19:03:47;10.43;;;4.73;;
28958;SDS011;16066;0.000;0.000;2023-08-06T19:06:13;7.17;;;4.23;;
28958;SDS011;16066;0.000;0.000;2023-08-06T19:08:38;8.77;;;4.27;;
28958;SDS011;16066;0.000;0.000;2023-08-06T19:11:04;7.50;;;4.40;;
28958;SDS011;16066;0.000;0.000;2023-08-06T19:13:30;6.27;;;3.57;;
28958;SDS011;16066;0.000;0.000;2023-08-06T19:15:55;7.20;;;3.90;;
28958;SDS011;16066;0.000;0.000;2023-08-06T19:18:21;7.47;;;3.33;;
28958;SDS011;16066;0.000;0.000;2023-08-06T19:20:47;5.70;;;3.50;;
28958;SDS011;16066;0.000;0.000;2023-08-06T19:23:13;7.03;;;3.50;;
28958;SDS011;16066;0.000;0.000;2023-08-06T19:25:42;5.03;;;3.17;;
28958;SDS011;16066;0.000;0.000;2023-08-06T19:28:08;6.53;;;3.07;;
28958;SDS011;16066;0.000;0.000;2023-08-06T19:30:36;4.97;;;3.33;;
28958;SDS011;16066;0.000;0.000;2023-08-06T19:33:06;8.03;;;2.70;;
28958;SDS011;16066;0.000;0.000;2023-08-06T19:35:59;7.23;;;3.13;;
28958;SDS011;16066;0.000;0.000;2023-08-06T19:38:24;4.60;;;3.00;;
28958;SDS011;16066;0.000;0.000;2023-08-06T19:40:50;7.40;;;3.40;;
28958;SDS011;16066;0.000;0.000;2023-08-06T19:43:26;5.27;;;3.00;;
28958;SDS011;16066;0.000;0.000;2023-08-06T19:45:53;7.70;;;3.43;;
28958;SDS011;16066;0.000;0.000;2023-08-06T19:48:18;8.53;;;3.40;;
28958;SDS011;16066;0.000;0.000;2023-08-06T19:50:50;4.20;;;2.60;;
28958;SDS011;16066;0.000;0.000;2023-08-06T19:53:17;4.10;;;2.37;;
28958;SDS011;16066;0.000;0.000;2023-08-06T19:55:43;6.40;;;3.03;;
28958;SDS011;16066;0.000;0.000;2023-08-06T19:58:09;8.53;;;3.03;;
28958;SDS011;16066;0.000;0.000;2023-08-06T20:00:34;6.23;;;3.00;;
28958;SDS011;16066;0.000;0.000;2023-08-06T20:03:00;7.10;;;2.77;;
28958;SDS011;16066;0.000;0.000;2023-08-06T20:05:26;4.80;;;2.67;;
28958;SDS011;16066;0.000;0.000;2023-08-06T20:07:51;10.20;;;2.27;;
28958;SDS011;16066;0.000;0.000;2023-08-06T20:10:17;7.40;;;2.20;;
28958;SDS011;16066;0.000;0.000;2023-08-06T20:12:42;4.93;;;2.40;;
28958;SDS011;16066;0.000;0.000;2023-08-06T20:15:08;5.67;;;2.33;;
28958;SDS011;16066;0.000;0.000;2023-08-06T20:17:34;6.30;;;2.20;;
28958;SDS011;16066;0.000;0.000;2023-08-06T20:19:59;4.40;;;2.80;;
28958;SDS011;16066;0.000;0.000;2023-08-06T20:22:25;3.97;;;1.97;;
28958;SDS011;16066;0.000;0.000;2023-08-06T20:24:50;5.23;;;2.03;;
28958;SDS011;16066;0.000;0.000;2023-08-06T20:27:16;4.97;;;2.50;;
28958;SDS011;16066;0.000;0.000;2023-08-06T20:29:42;5.65;;;2.28;;
28958;SDS011;16066;0.000;0.000;2023-08-06T20:32:07;5.57;;;2.23;;
28958;SDS011;16066;0.000;0.000;2023-08-06T20:34:33;4.23;;;2.00;;
28958;SDS011;16066;0.000;0.000;2023-08-06T20:36:58;6.87;;;2.70;;
28958;SDS011;16066;0.000;0.000;2023-08-06T20:39:24;7.23;;;2.50;;
28958;SDS011;16066;0.000;0.000;2023-08-06T20:41:49;4.53;;;2.60;;